sensor_id;sensor_type;location;lat;lon;timestamp;pressure;altitude;pressure_sealevel;temperature;humidity
64628;BME280;68467;50.960;0.314;2023-07-30T00:01:03;99350.21;;;15.10;100.00
64628;BME280;68467;50.960;0.314;2023-07-30T00:03:31;99347.82;;;14.61;100.00
64628;BME280;68467;50.960;0.314;2023-07-30T00:05:58;99348.51;;;14.49;100.00
64628;BME280;68467;50.960;0.314;2023-07-30T00:08:25;99347.21;;;14.42;100.00
64628;BME280;68467;50.960;0.314;2023-07-30T00:10:52;99346.72;;;14.23;100.00
64628;BME280;68467;50.960;0.314;2023-07-30T00:13:19;99343.37;;;14.43;100.00
64628;BME280;68467;50.960;0.314;2023-07-30T00:15:47;99340.44;;;14.82;100.00
64628;BME280;68467;50.960;0.314;2023-07-30T00:18:14;99337.63;;;14.37;100.00
64628;BME280;68467;50.960;0.314;2023-07-30T00:20:42;99338.01;;;14.43;100.00
64628;BME280;68467;50.960;0.314;2023-07-30T00:23:09;99337.70;;;14.34;100.00
64628;BME280;68467;50.960;0.314;2023-07-30T00:25:36;99335.16;;;13.86;100.00
64628;BME280;68467;50.960;0.314;2023-07-30T00:28:03;99333.98;;;13.84;100.00
64628;BME280;68467;50.960;0.314;2023-07-30T00:30:31;99330.82;;;14.67;100.00
64628;BME280;68467;50.960;0.314;2023-07-30T00:32:57;99334.35;;;14.33;100.00
64628;BME280;68467;50.960;0.314;2023-07-30T00:35:25;99340.56;;;13.66;100.00
64628;BME280;68467;50.960;0.314;2023-07-30T00:37:52;99350.10;;;13.70;100.00
64628;BME280;68467;50.960;0.314;2023-07-30T00:40:20;99348.36;;;14.53;100.00
64628;BME280;68467;50.960;0.314;2023-07-30T00:42:47;99346.64;;;14.08;100.00
64628;BME280;68467;50.960;0.314;2023-07-30T00:45:15;99348.28;;;14.05;100.00
64628;BME280;68467;50.960;0.314;2023-07-30T00:47:43;99351.83;;;14.11;100.00
64628;BME280;68467;50.960;0.314;2023-07-30T00:50:12;99349.38;;;13.77;100.00
64628;BME280;68467;50.960;0.314;2023-07-30T00:52:39;99350.85;;;14.40;100.00
64628;BME280;68467;50.960;0.314;2023-07-30T00:55:07;99349.20;;;15.18;100.00
64628;BME280;68467;50.960;0.314;2023-07-30T00:57:37;99348.22;;;14.65;100.00
64628;BME280;68467;50.960;0.314;2023-07-30T01:00:06;99344.68;;;14.36;100.00
64628;BME280;68467;50.960;0.314;2023-07-30T01:02:35;99342.17;;;14.68;100.00
64628;BME280;68467;50.960;0.314;2023-07-30T01:05:03;99343.82;;;16.06;100.00
64628;BME280;68467;50.960;0.314;2023-07-30T01:07:30;99337.39;;;15.92;100.00
64628;BME280;68467;50.960;0.314;2023-07-30T01:09:58;99330.34;;;16.71;100.00
64628;BME280;68467;50.960;0.314;2023-07-30T01:12:26;99330.07;;;16.47;100.00
64628;BME280;68467;50.960;0.314;2023-07-30T01:14:54;99330.91;;;16.45;100.00
64628;BME280;68467;50.960;0.314;2023-07-30T01:17:23;99341.65;;;16.59;100.00
64628;BME280;68467;50.960;0.314;2023-07-30T01:19:53;99341.00;;;16.39;100.00
64628;BME280;68467;50.960;0.314;2023-07-30T01:22:20;99339.09;;;15.84;100.00
64628;BME280;68467;50.960;0.314;2023-07-30T01:24:48;99338.00;;;16.33;100.00
64628;BME280;68467;50.960;0.314;2023-07-30T01:27:22;99333.20;;;15.55;100.00
64628;BME280;68467;50.960;0.314;2023-07-30T01:29:52;99336.43;;;15.88;100.00
64628;BME280;68467;50.960;0.314;2023-07-30T01:32:25;99335.18;;;15.56;100.00
64628;BME280;68467;50.960;0.314;2023-07-30T01:34:54;99339.23;;;15.22;100.00
64628;BME280;68467;50.960;0.314;2023-07-30T01:37:22;99338.60;;;14.67;100.00
64628;BME280;68467;50.960;0.314;2023-07-30T01:39:51;99347.23;;;15.07;100.00
64628;BME280;68467;50.960;0.314;2023-07-30T01:42:19;99350.89;;;15.09;100.00
64628;BME280;68467;50.960;0.314;2023-07-30T01:44:46;99346.99;;;14.14;100.00
64628;BME280;68467;50.960;0.314;2023-07-30T01:47:13;99337.42;;;15.51;100.00
64628;BME280;68467;50.960;0.314;2023-07-30T01:49:40;99338.93;;;14.97;100.00
64628;BME280;68467;50.960;0.314;2023-07-30T01:52:07;99339.46;;;15.34;100.00
64628;BME280;68467;50.960;0.314;2023-07-30T01:54:35;99338.48;;;15.69;100.00
64628;BME280;68467;50.960;0.314;2023-07-30T01:57:02;99334.05;;;16.13;100.00
64628;BME280;68467;50.960;0.314;2023-07-30T01:59:29;99337.57;;;15.45;100.00
64628;BME280;68467;50.960;0.314;2023-07-30T02:01:56;99340.70;;;14.88;100.00
64628;BME280;68467;50.960;0.314;2023-07-30T02:04:23;99340.63;;;15.35;100.00
64628;BME280;68467;50.960;0.314;2023-07-30T02:06:51;99339.99;;;15.44;100.00
64628;BME280;68467;50.960;0.314;2023-07-30T02:09:18;99334.52;;;15.41;100.00
64628;BME280;68467;50.960;0.314;2023-07-30T02:11:50;99342.46;;;15.11;100.00
64628;BME280;68467;50.960;0.314;2023-07-30T02:14:18;99336.61;;;15.47;100.00
64628;BME280;68467;50.960;0.314;2023-07-30T02:16:45;99345.02;;;14.84;100.00
64628;BME280;68467;50.960;0.314;2023-07-30T02:19:13;99337.27;;;15.39;100.00
64628;BME280;68467;50.960;0.314;2023-07-30T02:21:39;99337.00;;;16.05;100.00
64628;BME280;68467;50.960;0.314;2023-07-30T02:24:06;99337.92;;;14.59;100.00
64628;BME280;68467;50.960;0.314;2023-07-30T02:26:33;99336.55;;;15.94;100.00
64628;BME280;68467;50.960;0.314;2023-07-30T02:29:01;99337.17;;;15.48;100.00
64628;BME280;68467;50.960;0.314;2023-07-30T02:31:28;99333.42;;;15.05;100.00
64628;BME280;68467;50.960;0.314;2023-07-30T02:33:56;99333.91;;;15.04;100.00
64628;BME280;68467;50.960;0.314;2023-07-30T02:36:23;99329.64;;;15.72;100.00
64628;BME280;68467;50.960;0.314;2023-07-30T02:38:50;99331.14;;;15.64;100.00
64628;BME280;68467;50.960;0.314;2023-07-30T02:41:17;99328.37;;;15.15;100.00
64628;BME280;68467;50.960;0.314;2023-07-30T02:43:44;99328.54;;;15.18;100.00
64628;BME280;68467;50.960;0.314;2023-07-30T02:46:12;99330.70;;;15.24;100.00
64628;BME280;68467;50.960;0.314;2023-07-30T02:48:39;99327.50;;;15.49;100.00
64628;BME280;68467;50.960;0.314;2023-07-30T02:51:06;99331.60;;;15.57;100.00
64628;BME280;68467;50.960;0.314;2023-07-30T02:53:34;99336.09;;;14.79;100.00
64628;BME280;68467;50.960;0.314;2023-07-30T02:56:01;99337.40;;;15.02;100.00
64628;BME280;68467;50.960;0.314;2023-07-30T02:58:28;99336.88;;;15.79;100.00
64628;BME280;68467;50.960;0.314;2023-07-30T03:00:54;99336.32;;;16.01;100.00
64628;BME280;68467;50.960;0.314;2023-07-30T03:03:22;99335.04;;;15.54;100.00
64628;BME280;68467;50.960;0.314;2023-07-30T03:05:49;99336.98;;;14.41;100.00
64628;BME280;68467;50.960;0.314;2023-07-30T03:08:16;99331.42;;;15.08;100.00
64628;BME280;68467;50.960;0.314;2023-07-30T03:10:43;99329.81;;;15.31;100.00
64628;BME280;68467;50.960;0.314;2023-07-30T03:13:10;99334.09;;;15.10;100.00
64628;BME280;68467;50.960;0.314;2023-07-30T03:15:37;99333.04;;;14.43;100.00
64628;BME280;68467;50.960;0.314;2023-07-30T03:18:04;99336.62;;;14.69;100.00
64628;BME280;68467;50.960;0.314;2023-07-30T03:20:31;99337.78;;;14.67;100.00
64628;BME280;68467;50.960;0.314;2023-07-30T03:22:59;99340.32;;;14.93;100.00
64628;BME280;68467;50.960;0.314;2023-07-30T03:25:26;99346.83;;;14.39;100.00
64628;BME280;68467;50.960;0.314;2023-07-30T03:27:53;99344.55;;;14.75;100.00
64628;BME280;68467;50.960;0.314;2023-07-30T03:30:20;99348.40;;;14.21;100.00
64628;BME280;68467;50.960;0.314;2023-07-30T03:32:47;99351.54;;;14.71;100.00
64628;BME280;68467;50.960;0.314;2023-07-30T03:35:14;99352.12;;;14.75;100.00
64628;BME280;68467;50.960;0.314;2023-07-30T03:37:42;99352.96;;;13.73;100.00
64628;BME280;68467;50.960;0.314;2023-07-30T03:40:10;99355.67;;;14.42;100.00
64628;BME280;68467;50.960;0.314;2023-07-30T03:42:37;99355.06;;;14.06;100.00
64628;BME280;68467;50.960;0.314;2023-07-30T03:45:06;99356.48;;;14.32;100.00
64628;BME280;68467;50.960;0.314;2023-07-30T03:47:34;99354.47;;;14.06;100.00
64628;BME280;68467;50.960;0.314;2023-07-30T03:50:02;99361.93;;;14.82;100.00
64628;BME280;68467;50.960;0.314;2023-07-30T03:52:29;99365.26;;;14.54;100.00
64628;BME280;68467;50.960;0.314;2023-07-30T03:54:56;99369.47;;;13.98;100.00
64628;BME280;68467;50.960;0.314;2023-07-30T03:57:23;99374.77;;;13.93;100.00
64628;BME280;68467;50.960;0.314;2023-07-30T03:59:51;99365.41;;;14.62;100.00
64628;BME280;68467;50.960;0.314;2023-07-30T04:02:18;99371.86;;;13.97;100.00
64628;BME280;68467;50.960;0.314;2023-07-30T04:04:46;99369.85;;;14.37;100.00
64628;BME280;68467;50.960;0.314;2023-07-30T04:07:14;99371.58;;;14.28;100.00
64628;BME280;68467;50.960;0.314;2023-07-30T04:09:41;99374.95;;;14.51;100.00
64628;BME280;68467;50.960;0.314;2023-07-30T04:12:08;99373.23;;;14.33;100.00
64628;BME280;68467;50.960;0.314;2023-07-30T04:14:36;99372.13;;;14.19;100.00
64628;BME280;68467;50.960;0.314;2023-07-30T04:17:04;99373.69;;;14.20;100.00
64628;BME280;68467;50.960;0.314;2023-07-30T04:19:32;99382.20;;;13.86;100.00
64628;BME280;68467;50.960;0.314;2023-07-30T04:22:00;99388.04;;;13.73;100.00
64628;BME280;68467;50.960;0.314;2023-07-30T04:24:27;99385.35;;;13.49;100.00
64628;BME280;68467;50.960;0.314;2023-07-30T04:26:55;99381.09;;;14.13;100.00
64628;BME280;68467;50.960;0.314;2023-07-30T04:29:22;99393.02;;;12.59;100.00
64628;BME280;68467;50.960;0.314;2023-07-30T04:31:49;99387.74;;;13.43;100.00
64628;BME280;68467;50.960;0.314;2023-07-30T04:34:16;99389.91;;;13.15;100.00
64628;BME280;68467;50.960;0.314;2023-07-30T04:36:43;99388.63;;;14.17;100.00
64628;BME280;68467;50.960;0.314;2023-07-30T04:39:10;99394.65;;;13.97;100.00
64628;BME280;68467;50.960;0.314;2023-07-30T04:41:37;99392.19;;;13.95;100.00
64628;BME280;68467;50.960;0.314;2023-07-30T04:44:04;99396.02;;;13.95;100.00
64628;BME280;68467;50.960;0.314;2023-07-30T04:46:32;99395.07;;;13.42;100.00
64628;BME280;68467;50.960;0.314;2023-07-30T04:49:02;99387.11;;;14.27;100.00
64628;BME280;68467;50.960;0.314;2023-07-30T04:51:30;99398.70;;;13.09;100.00
64628;BME280;68467;50.960;0.314;2023-07-30T04:53:58;99398.12;;;14.54;100.00
64628;BME280;68467;50.960;0.314;2023-07-30T04:56:25;99400.94;;;14.43;100.00
64628;BME280;68467;50.960;0.314;2023-07-30T04:58:53;99414.43;;;13.82;100.00
64628;BME280;68467;50.960;0.314;2023-07-30T05:01:20;99412.08;;;14.04;100.00
64628;BME280;68467;50.960;0.314;2023-07-30T05:03:48;99415.29;;;13.98;100.00
64628;BME280;68467;50.960;0.314;2023-07-30T05:06:15;99420.34;;;13.44;100.00
64628;BME280;68467;50.960;0.314;2023-07-30T05:08:42;99429.67;;;13.31;100.00
64628;BME280;68467;50.960;0.314;2023-07-30T05:11:09;99430.40;;;13.02;100.00
64628;BME280;68467;50.960;0.314;2023-07-30T05:13:36;99427.80;;;13.43;100.00
64628;BME280;68467;50.960;0.314;2023-07-30T05:16:03;99424.43;;;14.28;100.00
64628;BME280;68467;50.960;0.314;2023-07-30T05:18:31;99424.96;;;14.46;100.00
64628;BME280;68467;50.960;0.314;2023-07-30T05:21:03;99424.59;;;13.76;100.00
64628;BME280;68467;50.960;0.314;2023-07-30T05:23:31;99426.35;;;13.27;100.00
64628;BME280;68467;50.960;0.314;2023-07-30T05:25:58;99420.25;;;14.03;100.00
64628;BME280;68467;50.960;0.314;2023-07-30T05:28:26;99422.22;;;13.34;100.00
64628;BME280;68467;50.960;0.314;2023-07-30T05:30:53;99424.85;;;12.93;100.00
64628;BME280;68467;50.960;0.314;2023-07-30T05:33:20;99425.95;;;13.73;100.00
64628;BME280;68467;50.960;0.314;2023-07-30T05:35:47;99427.03;;;13.83;100.00
64628;BME280;68467;50.960;0.314;2023-07-30T05:38:14;99430.74;;;13.17;100.00
64628;BME280;68467;50.960;0.314;2023-07-30T05:40:42;99433.93;;;13.15;100.00
64628;BME280;68467;50.960;0.314;2023-07-30T05:43:09;99426.86;;;13.54;100.00
64628;BME280;68467;50.960;0.314;2023-07-30T05:45:36;99422.81;;;14.07;100.00
64628;BME280;68467;50.960;0.314;2023-07-30T05:48:03;99419.19;;;13.89;100.00
64628;BME280;68467;50.960;0.314;2023-07-30T05:50:31;99435.35;;;13.43;100.00
64628;BME280;68467;50.960;0.314;2023-07-30T05:52:58;99439.40;;;12.87;100.00
64628;BME280;68467;50.960;0.314;2023-07-30T05:55:25;99439.07;;;12.87;100.00
64628;BME280;68467;50.960;0.314;2023-07-30T05:57:52;99442.12;;;13.32;100.00
64628;BME280;68467;50.960;0.314;2023-07-30T06:00:19;99447.29;;;13.25;100.00
64628;BME280;68467;50.960;0.314;2023-07-30T06:02:46;99455.97;;;13.14;100.00
64628;BME280;68467;50.960;0.314;2023-07-30T06:05:14;99449.01;;;13.71;100.00
64628;BME280;68467;50.960;0.314;2023-07-30T06:07:42;99456.89;;;13.27;100.00
64628;BME280;68467;50.960;0.314;2023-07-30T06:10:09;99459.62;;;13.40;100.00
64628;BME280;68467;50.960;0.314;2023-07-30T06:12:36;99467.51;;;13.12;100.00
64628;BME280;68467;50.960;0.314;2023-07-30T06:15:06;99466.29;;;13.07;100.00
64628;BME280;68467;50.960;0.314;2023-07-30T06:17:34;99465.67;;;12.81;100.00
64628;BME280;68467;50.960;0.314;2023-07-30T06:20:01;99469.13;;;13.38;100.00
64628;BME280;68467;50.960;0.314;2023-07-30T06:22:29;99465.60;;;14.27;100.00
64628;BME280;68467;50.960;0.314;2023-07-30T06:24:56;99466.45;;;13.83;100.00
64628;BME280;68467;50.960;0.314;2023-07-30T06:27:23;99467.60;;;13.60;100.00
64628;BME280;68467;50.960;0.314;2023-07-30T06:29:50;99465.10;;;13.66;100.00
64628;BME280;68467;50.960;0.314;2023-07-30T06:32:17;99475.81;;;13.30;100.00
64628;BME280;68467;50.960;0.314;2023-07-30T06:34:44;99479.25;;;14.08;100.00
64628;BME280;68467;50.960;0.314;2023-07-30T06:37:11;99469.18;;;13.88;100.00
64628;BME280;68467;50.960;0.314;2023-07-30T06:39:38;99477.11;;;13.94;100.00
64628;BME280;68467;50.960;0.314;2023-07-30T06:42:05;99473.04;;;14.34;100.00
64628;BME280;68467;50.960;0.314;2023-07-30T06:44:33;99472.69;;;14.35;100.00
64628;BME280;68467;50.960;0.314;2023-07-30T06:47:00;99478.00;;;14.39;100.00
64628;BME280;68467;50.960;0.314;2023-07-30T06:49:27;99479.95;;;13.55;100.00
64628;BME280;68467;50.960;0.314;2023-07-30T06:51:54;99476.53;;;14.28;100.00
64628;BME280;68467;50.960;0.314;2023-07-30T06:54:22;99477.19;;;14.02;100.00
64628;BME280;68467;50.960;0.314;2023-07-30T06:56:49;99474.21;;;14.60;100.00
64628;BME280;68467;50.960;0.314;2023-07-30T06:59:16;99480.29;;;14.44;100.00
64628;BME280;68467;50.960;0.314;2023-07-30T07:01:43;99488.51;;;14.40;100.00
64628;BME280;68467;50.960;0.314;2023-07-30T07:04:10;99486.93;;;14.51;100.00
64628;BME280;68467;50.960;0.314;2023-07-30T07:06:37;99489.44;;;14.21;100.00
64628;BME280;68467;50.960;0.314;2023-07-30T07:09:05;99489.40;;;14.91;100.00
64628;BME280;68467;50.960;0.314;2023-07-30T07:11:32;99484.58;;;15.51;100.00
64628;BME280;68467;50.960;0.314;2023-07-30T07:13:59;99493.58;;;15.37;100.00
64628;BME280;68467;50.960;0.314;2023-07-30T07:16:26;99500.35;;;14.93;100.00
64628;BME280;68467;50.960;0.314;2023-07-30T07:18:52;99500.22;;;14.46;100.00
64628;BME280;68467;50.960;0.314;2023-07-30T07:21:20;99499.17;;;14.72;100.00
64628;BME280;68467;50.960;0.314;2023-07-30T07:23:47;99500.23;;;14.51;100.00
64628;BME280;68467;50.960;0.314;2023-07-30T07:26:14;99498.94;;;15.74;100.00
64628;BME280;68467;50.960;0.314;2023-07-30T07:28:41;99499.44;;;15.54;100.00
64628;BME280;68467;50.960;0.314;2023-07-30T07:31:08;99502.41;;;15.27;100.00
64628;BME280;68467;50.960;0.314;2023-07-30T07:33:36;99502.58;;;15.65;100.00
64628;BME280;68467;50.960;0.314;2023-07-30T07:36:04;99493.87;;;15.73;100.00
64628;BME280;68467;50.960;0.314;2023-07-30T07:38:32;99497.02;;;16.07;100.00
64628;BME280;68467;50.960;0.314;2023-07-30T07:41:00;99503.92;;;15.73;100.00
64628;BME280;68467;50.960;0.314;2023-07-30T07:43:27;99508.67;;;15.78;100.00
64628;BME280;68467;50.960;0.314;2023-07-30T07:45:54;99508.93;;;15.85;100.00
64628;BME280;68467;50.960;0.314;2023-07-30T07:48:21;99504.65;;;16.28;100.00
64628;BME280;68467;50.960;0.314;2023-07-30T07:50:49;99507.34;;;16.05;100.00
64628;BME280;68467;50.960;0.314;2023-07-30T07:53:16;99505.21;;;16.21;100.00
64628;BME280;68467;50.960;0.314;2023-07-30T07:55:43;99507.55;;;15.89;100.00
64628;BME280;68467;50.960;0.314;2023-07-30T07:58:11;99514.57;;;15.51;100.00
64628;BME280;68467;50.960;0.314;2023-07-30T08:00:37;99513.05;;;15.37;100.00
64628;BME280;68467;50.960;0.314;2023-07-30T08:03:04;99507.28;;;15.66;100.00
64628;BME280;68467;50.960;0.314;2023-07-30T08:05:31;99505.68;;;15.39;100.00
64628;BME280;68467;50.960;0.314;2023-07-30T08:07:58;99505.03;;;15.79;100.00
64628;BME280;68467;50.960;0.314;2023-07-30T08:10:26;99511.56;;;15.69;100.00
64628;BME280;68467;50.960;0.314;2023-07-30T08:12:53;99515.50;;;15.60;100.00
64628;BME280;68467;50.960;0.314;2023-07-30T08:15:25;99518.00;;;15.65;100.00
64628;BME280;68467;50.960;0.314;2023-07-30T08:17:52;99515.94;;;16.09;100.00
64628;BME280;68467;50.960;0.314;2023-07-30T08:20:20;99515.62;;;16.07;100.00
64628;BME280;68467;50.960;0.314;2023-07-30T08:22:47;99516.36;;;16.09;100.00
64628;BME280;68467;50.960;0.314;2023-07-30T08:25:14;99508.59;;;17.08;100.00
64628;BME280;68467;50.960;0.314;2023-07-30T08:27:41;99520.85;;;16.40;100.00
64628;BME280;68467;50.960;0.314;2023-07-30T08:30:10;99516.62;;;15.80;100.00
64628;BME280;68467;50.960;0.314;2023-07-30T08:32:37;99512.57;;;15.90;100.00
64628;BME280;68467;50.960;0.314;2023-07-30T08:35:06;99510.02;;;17.03;100.00
64628;BME280;68467;50.960;0.314;2023-07-30T08:37:33;99504.53;;;16.81;100.00
64628;BME280;68467;50.960;0.314;2023-07-30T08:40:00;99510.08;;;17.20;100.00
64628;BME280;68467;50.960;0.314;2023-07-30T08:42:27;99509.72;;;16.53;100.00
64628;BME280;68467;50.960;0.314;2023-07-30T08:44:55;99508.28;;;17.29;100.00
64628;BME280;68467;50.960;0.314;2023-07-30T08:47:23;99510.65;;;16.66;100.00
64628;BME280;68467;50.960;0.314;2023-07-30T08:49:50;99506.32;;;17.08;100.00
64628;BME280;68467;50.960;0.314;2023-07-30T08:52:21;99514.92;;;17.05;100.00
64628;BME280;68467;50.960;0.314;2023-07-30T08:54:50;99507.45;;;16.30;100.00
64628;BME280;68467;50.960;0.314;2023-07-30T08:57:19;99508.14;;;16.21;100.00
64628;BME280;68467;50.960;0.314;2023-07-30T08:59:50;99518.94;;;16.49;100.00
64628;BME280;68467;50.960;0.314;2023-07-30T09:02:23;99510.92;;;16.59;100.00
64628;BME280;68467;50.960;0.314;2023-07-30T09:04:57;99499.12;;;17.07;100.00
64628;BME280;68467;50.960;0.314;2023-07-30T09:07:25;99513.66;;;16.89;100.00
64628;BME280;68467;50.960;0.314;2023-07-30T09:09:52;99509.00;;;16.65;100.00
64628;BME280;68467;50.960;0.314;2023-07-30T09:12:18;99514.90;;;17.29;100.00
64628;BME280;68467;50.960;0.314;2023-07-30T09:14:50;99521.72;;;17.03;100.00
64628;BME280;68467;50.960;0.314;2023-07-30T09:17:18;99523.65;;;17.04;100.00
64628;BME280;68467;50.960;0.314;2023-07-30T09:19:45;99513.55;;;17.18;100.00
64628;BME280;68467;50.960;0.314;2023-07-30T09:22:12;99512.14;;;16.71;100.00
64628;BME280;68467;50.960;0.314;2023-07-30T09:24:42;99514.43;;;16.52;100.00
64628;BME280;68467;50.960;0.314;2023-07-30T09:27:11;99520.29;;;16.89;100.00
64628;BME280;68467;50.960;0.314;2023-07-30T09:29:38;99519.51;;;17.14;100.00
64628;BME280;68467;50.960;0.314;2023-07-30T09:32:17;99521.21;;;16.98;100.00
64628;BME280;68467;50.960;0.314;2023-07-30T09:34:45;99520.76;;;16.96;100.00
64628;BME280;68467;50.960;0.314;2023-07-30T09:37:12;99531.43;;;17.39;100.00
64628;BME280;68467;50.960;0.314;2023-07-30T09:39:40;99530.62;;;16.92;100.00
64628;BME280;68467;50.960;0.314;2023-07-30T09:42:08;99531.32;;;16.99;100.00
64628;BME280;68467;50.960;0.314;2023-07-30T09:44:37;99533.53;;;16.68;100.00
64628;BME280;68467;50.960;0.314;2023-07-30T09:47:04;99535.81;;;17.04;100.00
64628;BME280;68467;50.960;0.314;2023-07-30T09:49:31;99546.79;;;15.91;100.00
64628;BME280;68467;50.960;0.314;2023-07-30T09:52:00;99548.60;;;16.17;100.00
64628;BME280;68467;50.960;0.314;2023-07-30T09:54:28;99545.45;;;16.78;100.00
64628;BME280;68467;50.960;0.314;2023-07-30T09:56:56;99553.84;;;16.53;100.00
64628;BME280;68467;50.960;0.314;2023-07-30T09:59:23;99563.91;;;15.84;100.00
64628;BME280;68467;50.960;0.314;2023-07-30T10:01:51;99560.76;;;16.38;100.00
64628;BME280;68467;50.960;0.314;2023-07-30T10:04:20;99563.69;;;16.82;100.00
64628;BME280;68467;50.960;0.314;2023-07-30T10:06:52;99556.69;;;15.90;100.00
64628;BME280;68467;50.960;0.314;2023-07-30T10:09:23;99574.53;;;15.67;100.00
64628;BME280;68467;50.960;0.314;2023-07-30T10:11:53;99565.51;;;15.48;100.00
64628;BME280;68467;50.960;0.314;2023-07-30T10:14:22;99565.76;;;15.86;100.00
64628;BME280;68467;50.960;0.314;2023-07-30T10:16:52;99568.39;;;16.07;100.00
64628;BME280;68467;50.960;0.314;2023-07-30T10:19:23;99571.85;;;16.32;100.00
64628;BME280;68467;50.960;0.314;2023-07-30T10:21:50;99587.97;;;16.20;100.00
64628;BME280;68467;50.960;0.314;2023-07-30T10:24:17;99588.77;;;15.67;100.00
64628;BME280;68467;50.960;0.314;2023-07-30T10:26:44;99589.51;;;15.43;100.00
64628;BME280;68467;50.960;0.314;2023-07-30T10:29:14;99575.43;;;16.19;100.00
64628;BME280;68467;50.960;0.314;2023-07-30T10:31:43;99583.79;;;15.49;100.00
64628;BME280;68467;50.960;0.314;2023-07-30T10:34:11;99585.96;;;15.39;100.00
64628;BME280;68467;50.960;0.314;2023-07-30T10:36:43;99587.51;;;16.34;100.00
64628;BME280;68467;50.960;0.314;2023-07-30T10:39:13;99589.15;;;15.77;100.00
64628;BME280;68467;50.960;0.314;2023-07-30T10:41:41;99599.51;;;15.38;100.00
64628;BME280;68467;50.960;0.314;2023-07-30T10:44:17;99596.67;;;14.86;100.00
64628;BME280;68467;50.960;0.314;2023-07-30T10:46:52;99591.04;;;15.47;100.00
64628;BME280;68467;50.960;0.314;2023-07-30T10:49:20;99608.84;;;15.09;100.00
64628;BME280;68467;50.960;0.314;2023-07-30T10:51:47;99608.57;;;14.90;100.00
64628;BME280;68467;50.960;0.314;2023-07-30T10:54:15;99611.68;;;14.26;100.00
64628;BME280;68467;50.960;0.314;2023-07-30T10:56:43;99617.24;;;15.03;100.00
64628;BME280;68467;50.960;0.314;2023-07-30T10:59:10;99604.21;;;14.92;100.00
64628;BME280;68467;50.960;0.314;2023-07-30T11:01:38;99592.98;;;15.06;100.00
64628;BME280;68467;50.960;0.314;2023-07-30T11:04:08;99604.83;;;15.07;100.00
64628;BME280;68467;50.960;0.314;2023-07-30T11:06:36;99595.97;;;15.09;100.00
64628;BME280;68467;50.960;0.314;2023-07-30T11:09:04;99608.29;;;14.70;100.00
64628;BME280;68467;50.960;0.314;2023-07-30T11:11:31;99606.13;;;15.51;100.00
64628;BME280;68467;50.960;0.314;2023-07-30T11:13:58;99613.19;;;14.70;100.00
64628;BME280;68467;50.960;0.314;2023-07-30T11:16:25;99614.95;;;14.92;100.00
64628;BME280;68467;50.960;0.314;2023-07-30T11:18:53;99621.40;;;14.63;100.00
64628;BME280;68467;50.960;0.314;2023-07-30T11:21:20;99617.53;;;14.25;100.00
64628;BME280;68467;50.960;0.314;2023-07-30T11:23:50;99622.26;;;14.31;100.00
64628;BME280;68467;50.960;0.314;2023-07-30T11:26:19;99627.79;;;13.96;100.00
64628;BME280;68467;50.960;0.314;2023-07-30T11:28:46;99616.58;;;14.10;100.00
64628;BME280;68467;50.960;0.314;2023-07-30T11:31:15;99616.20;;;14.59;100.00
64628;BME280;68467;50.960;0.314;2023-07-30T11:33:44;99615.22;;;14.47;100.00
64628;BME280;68467;50.960;0.314;2023-07-30T11:36:15;99611.73;;;14.45;100.00
64628;BME280;68467;50.960;0.314;2023-07-30T11:38:43;99605.57;;;14.27;100.00
64628;BME280;68467;50.960;0.314;2023-07-30T11:41:11;99610.87;;;14.45;100.00
64628;BME280;68467;50.960;0.314;2023-07-30T11:43:41;99611.19;;;14.31;100.00
64628;BME280;68467;50.960;0.314;2023-07-30T11:46:11;99614.70;;;14.91;100.00
64628;BME280;68467;50.960;0.314;2023-07-30T11:48:41;99617.17;;;14.68;100.00
64628;BME280;68467;50.960;0.314;2023-07-30T11:51:19;99614.68;;;14.29;100.00
64628;BME280;68467;50.960;0.314;2023-07-30T11:53:48;99611.47;;;14.66;100.00
64628;BME280;68467;50.960;0.314;2023-07-30T11:56:17;99613.73;;;14.60;100.00
64628;BME280;68467;50.960;0.314;2023-07-30T11:58:46;99613.24;;;14.22;100.00
64628;BME280;68467;50.960;0.314;2023-07-30T12:01:13;99613.01;;;13.91;100.00
64628;BME280;68467;50.960;0.314;2023-07-30T12:03:41;99610.56;;;14.24;100.00
64628;BME280;68467;50.960;0.314;2023-07-30T12:06:10;99609.29;;;14.36;100.00
64628;BME280;68467;50.960;0.314;2023-07-30T12:08:38;99604.18;;;14.95;100.00
64628;BME280;68467;50.960;0.314;2023-07-30T12:11:06;99601.24;;;15.13;100.00
64628;BME280;68467;50.960;0.314;2023-07-30T12:13:34;99598.55;;;15.18;100.00
64628;BME280;68467;50.960;0.314;2023-07-30T12:16:09;99599.58;;;15.01;100.00
64628;BME280;68467;50.960;0.314;2023-07-30T12:18:36;99598.47;;;14.76;100.00
64628;BME280;68467;50.960;0.314;2023-07-30T12:21:03;99592.80;;;14.64;100.00
64628;BME280;68467;50.960;0.314;2023-07-30T12:23:31;99586.94;;;14.66;100.00
64628;BME280;68467;50.960;0.314;2023-07-30T12:25:58;99585.06;;;14.97;100.00
64628;BME280;68467;50.960;0.314;2023-07-30T12:28:25;99579.83;;;14.61;100.00
64628;BME280;68467;50.960;0.314;2023-07-30T12:30:52;99581.22;;;14.72;100.00
64628;BME280;68467;50.960;0.314;2023-07-30T12:33:19;99586.60;;;14.47;100.00
64628;BME280;68467;50.960;0.314;2023-07-30T12:35:46;99581.88;;;14.13;100.00
64628;BME280;68467;50.960;0.314;2023-07-30T12:38:13;99581.44;;;14.20;100.00
64628;BME280;68467;50.960;0.314;2023-07-30T12:40:40;99575.00;;;14.92;100.00
64628;BME280;68467;50.960;0.314;2023-07-30T12:43:07;99576.75;;;14.47;100.00
64628;BME280;68467;50.960;0.314;2023-07-30T12:45:34;99572.85;;;14.95;100.00
64628;BME280;68467;50.960;0.314;2023-07-30T12:48:02;99565.83;;;15.27;100.00
64628;BME280;68467;50.960;0.314;2023-07-30T12:50:30;99564.79;;;15.52;100.00
64628;BME280;68467;50.960;0.314;2023-07-30T12:52:57;99559.73;;;15.73;100.00